sensor_id;sensor_type;location;lat;lon;timestamp;temperature;humidity
7196;DHT22;3639;51.308;5.624;2024-01-30T00:02:17;7.40;99.90
7196;DHT22;3639;51.308;5.624;2024-01-30T00:04:42;7.40;99.90
7196;DHT22;3639;51.308;5.624;2024-01-30T00:07:08;7.50;99.90
7196;DHT22;3639;51.308;5.624;2024-01-30T00:09:33;7.50;99.90
7196;DHT22;3639;51.308;5.624;2024-01-30T00:11:59;7.50;99.90
7196;DHT22;3639;51.308;5.624;2024-01-30T00:14:25;7.50;99.90
7196;DHT22;3639;51.308;5.624;2024-01-30T00:16:51;7.60;99.90
7196;DHT22;3639;51.308;5.624;2024-01-30T00:19:16;7.60;99.90
7196;DHT22;3639;51.308;5.624;2024-01-30T00:21:42;7.60;99.90
7196;DHT22;3639;51.308;5.624;2024-01-30T00:24:07;7.60;99.90
7196;DHT22;3639;51.308;5.624;2024-01-30T00:26:33;7.50;99.90
7196;DHT22;3639;51.308;5.624;2024-01-30T00:28:59;7.50;99.90
7196;DHT22;3639;51.308;5.624;2024-01-30T00:31:24;7.50;99.90
7196;DHT22;3639;51.308;5.624;2024-01-30T00:33:50;7.50;99.90
7196;DHT22;3639;51.308;5.624;2024-01-30T00:36:15;7.50;99.90
7196;DHT22;3639;51.308;5.624;2024-01-30T00:38:41;7.50;99.90
7196;DHT22;3639;51.308;5.624;2024-01-30T00:41:08;7.50;99.90
7196;DHT22;3639;51.308;5.624;2024-01-30T00:43:33;7.40;99.90
7196;DHT22;3639;51.308;5.624;2024-01-30T00:45:59;7.50;99.90
7196;DHT22;3639;51.308;5.624;2024-01-30T00:48:25;7.60;99.90
7196;DHT22;3639;51.308;5.624;2024-01-30T00:50:50;7.60;99.90
7196;DHT22;3639;51.308;5.624;2024-01-30T00:53:16;7.60;99.90
7196;DHT22;3639;51.308;5.624;2024-01-30T00:55:41;7.60;99.90
7196;DHT22;3639;51.308;5.624;2024-01-30T00:58:07;7.60;99.90
7196;DHT22;3639;51.308;5.624;2024-01-30T01:00:33;7.60;99.90
7196;DHT22;3639;51.308;5.624;2024-01-30T01:02:59;7.60;99.90
7196;DHT22;3639;51.308;5.624;2024-01-30T01:05:25;7.70;99.90
7196;DHT22;3639;51.308;5.624;2024-01-30T01:07:51;7.70;99.90
7196;DHT22;3639;51.308;5.624;2024-01-30T01:10:17;7.60;99.90
7196;DHT22;3639;51.308;5.624;2024-01-30T01:12:43;7.70;99.90
7196;DHT22;3639;51.308;5.624;2024-01-30T01:15:09;7.70;99.90
7196;DHT22;3639;51.308;5.624;2024-01-30T01:17:35;7.80;99.90
7196;DHT22;3639;51.308;5.624;2024-01-30T01:20:02;7.70;99.90
7196;DHT22;3639;51.308;5.624;2024-01-30T01:22:27;7.80;99.90
7196;DHT22;3639;51.308;5.624;2024-01-30T01:24:53;7.70;99.90
7196;DHT22;3639;51.308;5.624;2024-01-30T01:27:18;7.70;99.90
7196;DHT22;3639;51.308;5.624;2024-01-30T01:29:44;7.70;99.90
7196;DHT22;3639;51.308;5.624;2024-01-30T01:32:10;7.70;99.90
7196;DHT22;3639;51.308;5.624;2024-01-30T01:34:36;7.70;99.90
7196;DHT22;3639;51.308;5.624;2024-01-30T01:37:02;7.70;99.90
7196;DHT22;3639;51.308;5.624;2024-01-30T01:39:27;7.70;99.90
7196;DHT22;3639;51.308;5.624;2024-01-30T01:41:53;7.70;99.90
7196;DHT22;3639;51.308;5.624;2024-01-30T01:44:19;7.70;99.90
7196;DHT22;3639;51.308;5.624;2024-01-30T01:46:44;7.60;99.90
7196;DHT22;3639;51.308;5.624;2024-01-30T01:49:10;7.60;99.90
7196;DHT22;3639;51.308;5.624;2024-01-30T01:51:36;7.60;99.90
7196;DHT22;3639;51.308;5.624;2024-01-30T01:54:04;7.60;99.90
7196;DHT22;3639;51.308;5.624;2024-01-30T01:56:33;7.60;99.90
7196;DHT22;3639;51.308;5.624;2024-01-30T01:59:05;7.60;99.90
7196;DHT22;3639;51.308;5.624;2024-01-30T02:01:33;7.60;99.90
7196;DHT22;3639;51.308;5.624;2024-01-30T02:03:59;7.50;99.90
7196;DHT22;3639;51.308;5.624;2024-01-30T02:06:25;7.50;99.90
7196;DHT22;3639;51.308;5.624;2024-01-30T02:08:51;7.50;99.90
7196;DHT22;3639;51.308;5.624;2024-01-30T02:11:16;7.40;99.90
7196;DHT22;3639;51.308;5.624;2024-01-30T02:13:42;7.40;99.90
7196;DHT22;3639;51.308;5.624;2024-01-30T02:16:08;7.40;99.90
7196;DHT22;3639;51.308;5.624;2024-01-30T02:18:33;7.40;99.90
7196;DHT22;3639;51.308;5.624;2024-01-30T02:21:04;7.50;99.90
7196;DHT22;3639;51.308;5.624;2024-01-30T02:23:30;7.50;99.90
7196;DHT22;3639;51.308;5.624;2024-01-30T02:25:56;7.50;99.90
7196;DHT22;3639;51.308;5.624;2024-01-30T02:28:21;7.50;99.90
7196;DHT22;3639;51.308;5.624;2024-01-30T02:30:47;7.50;99.90
7196;DHT22;3639;51.308;5.624;2024-01-30T02:33:13;7.50;99.90
7196;DHT22;3639;51.308;5.624;2024-01-30T02:35:38;7.50;99.90
7196;DHT22;3639;51.308;5.624;2024-01-30T02:38:04;7.50;99.90
7196;DHT22;3639;51.308;5.624;2024-01-30T02:40:30;7.50;99.90
7196;DHT22;3639;51.308;5.624;2024-01-30T02:42:56;7.60;99.90
7196;DHT22;3639;51.308;5.624;2024-01-30T02:45:22;7.50;99.90
7196;DHT22;3639;51.308;5.624;2024-01-30T02:47:47;7.50;99.90
7196;DHT22;3639;51.308;5.624;2024-01-30T02:50:13;7.40;99.90
7196;DHT22;3639;51.308;5.624;2024-01-30T02:52:40;7.40;99.90
7196;DHT22;3639;51.308;5.624;2024-01-30T02:55:06;7.50;99.90
7196;DHT22;3639;51.308;5.624;2024-01-30T02:57:32;7.40;99.90
7196;DHT22;3639;51.308;5.624;2024-01-30T02:59:57;7.40;99.90
7196;DHT22;3639;51.308;5.624;2024-01-30T03:02:23;7.40;99.90
7196;DHT22;3639;51.308;5.624;2024-01-30T03:04:48;7.40;99.90
7196;DHT22;3639;51.308;5.624;2024-01-30T03:07:14;7.30;99.90
7196;DHT22;3639;51.308;5.624;2024-01-30T03:09:41;7.20;99.90
7196;DHT22;3639;51.308;5.624;2024-01-30T03:12:08;7.20;99.90
7196;DHT22;3639;51.308;5.624;2024-01-30T03:14:33;7.20;99.90
7196;DHT22;3639;51.308;5.624;2024-01-30T03:16:59;7.20;99.90
7196;DHT22;3639;51.308;5.624;2024-01-30T03:19:24;7.20;99.90
7196;DHT22;3639;51.308;5.624;2024-01-30T03:21:50;7.10;99.90
7196;DHT22;3639;51.308;5.624;2024-01-30T03:24:16;7.10;99.90
7196;DHT22;3639;51.308;5.624;2024-01-30T03:26:42;7.10;99.90
7196;DHT22;3639;51.308;5.624;2024-01-30T03:29:08;7.10;99.90
7196;DHT22;3639;51.308;5.624;2024-01-30T03:31:34;7.20;99.90
7196;DHT22;3639;51.308;5.624;2024-01-30T03:34:00;7.10;99.90
7196;DHT22;3639;51.308;5.624;2024-01-30T03:36:26;7.10;99.90
7196;DHT22;3639;51.308;5.624;2024-01-30T03:38:51;7.00;99.90
7196;DHT22;3639;51.308;5.624;2024-01-30T03:41:17;7.00;99.90
7196;DHT22;3639;51.308;5.624;2024-01-30T03:43:42;7.00;99.90
7196;DHT22;3639;51.308;5.624;2024-01-30T03:46:08;7.00;99.90
7196;DHT22;3639;51.308;5.624;2024-01-30T03:48:34;7.10;99.90
7196;DHT22;3639;51.308;5.624;2024-01-30T03:50:59;7.10;99.90
7196;DHT22;3639;51.308;5.624;2024-01-30T03:53:25;7.10;99.90
7196;DHT22;3639;51.308;5.624;2024-01-30T03:55:51;7.00;99.90
7196;DHT22;3639;51.308;5.624;2024-01-30T03:58:16;7.00;99.90
7196;DHT22;3639;51.308;5.624;2024-01-30T04:00:42;6.90;99.90
7196;DHT22;3639;51.308;5.624;2024-01-30T04:03:07;6.90;99.90
7196;DHT22;3639;51.308;5.624;2024-01-30T04:05:33;6.80;99.90
7196;DHT22;3639;51.308;5.624;2024-01-30T04:07:59;6.80;99.90
7196;DHT22;3639;51.308;5.624;2024-01-30T04:10:24;6.80;99.90
7196;DHT22;3639;51.308;5.624;2024-01-30T04:12:51;6.80;99.90
7196;DHT22;3639;51.308;5.624;2024-01-30T04:15:17;6.80;99.90
7196;DHT22;3639;51.308;5.624;2024-01-30T04:17:43;6.70;99.90
7196;DHT22;3639;51.308;5.624;2024-01-30T04:20:13;6.80;99.90
7196;DHT22;3639;51.308;5.624;2024-01-30T04:22:39;6.70;99.90
7196;DHT22;3639;51.308;5.624;2024-01-30T04:25:05;6.60;99.90
7196;DHT22;3639;51.308;5.624;2024-01-30T04:27:30;6.60;99.90
7196;DHT22;3639;51.308;5.624;2024-01-30T04:29:56;6.70;99.90
7196;DHT22;3639;51.308;5.624;2024-01-30T04:32:22;6.70;99.90
7196;DHT22;3639;51.308;5.624;2024-01-30T04:34:47;6.70;99.90
7196;DHT22;3639;51.308;5.624;2024-01-30T04:37:13;6.70;99.90
7196;DHT22;3639;51.308;5.624;2024-01-30T04:39:38;6.60;99.90
7196;DHT22;3639;51.308;5.624;2024-01-30T04:42:04;6.60;99.90
7196;DHT22;3639;51.308;5.624;2024-01-30T04:44:30;6.60;99.90
7196;DHT22;3639;51.308;5.624;2024-01-30T04:46:56;6.60;99.90
7196;DHT22;3639;51.308;5.624;2024-01-30T04:49:24;6.70;99.90
7196;DHT22;3639;51.308;5.624;2024-01-30T04:51:49;6.70;99.90
7196;DHT22;3639;51.308;5.624;2024-01-30T04:54:15;6.80;99.90
7196;DHT22;3639;51.308;5.624;2024-01-30T04:56:40;7.00;99.90
7196;DHT22;3639;51.308;5.624;2024-01-30T04:59:06;7.10;99.90
7196;DHT22;3639;51.308;5.624;2024-01-30T05:01:33;7.20;99.90
7196;DHT22;3639;51.308;5.624;2024-01-30T05:03:59;7.20;99.90
7196;DHT22;3639;51.308;5.624;2024-01-30T05:06:28;7.20;99.90
7196;DHT22;3639;51.308;5.624;2024-01-30T05:08:54;7.40;99.90
7196;DHT22;3639;51.308;5.624;2024-01-30T05:11:19;7.50;99.90
7196;DHT22;3639;51.308;5.624;2024-01-30T05:13:45;7.60;99.90
7196;DHT22;3639;51.308;5.624;2024-01-30T05:16:11;7.60;99.90
7196;DHT22;3639;51.308;5.624;2024-01-30T05:18:36;7.70;99.90
7196;DHT22;3639;51.308;5.624;2024-01-30T05:21:02;7.70;99.90
7196;DHT22;3639;51.308;5.624;2024-01-30T05:23:28;7.80;99.90
7196;DHT22;3639;51.308;5.624;2024-01-30T05:25:54;7.90;99.90
7196;DHT22;3639;51.308;5.624;2024-01-30T05:28:20;7.90;99.90
7196;DHT22;3639;51.308;5.624;2024-01-30T05:30:45;8.00;99.90
7196;DHT22;3639;51.308;5.624;2024-01-30T05:33:11;8.00;99.90
7196;DHT22;3639;51.308;5.624;2024-01-30T05:35:37;8.00;99.90
7196;DHT22;3639;51.308;5.624;2024-01-30T05:38:03;8.10;99.90
7196;DHT22;3639;51.308;5.624;2024-01-30T05:40:30;8.10;99.90
7196;DHT22;3639;51.308;5.624;2024-01-30T05:42:56;8.20;99.90
7196;DHT22;3639;51.308;5.624;2024-01-30T05:45:21;8.30;99.90
7196;DHT22;3639;51.308;5.624;2024-01-30T05:47:48;8.30;99.90
7196;DHT22;3639;51.308;5.624;2024-01-30T05:50:14;8.30;99.90
7196;DHT22;3639;51.308;5.624;2024-01-30T05:52:40;8.30;99.90
7196;DHT22;3639;51.308;5.624;2024-01-30T05:55:06;8.40;99.90
7196;DHT22;3639;51.308;5.624;2024-01-30T05:57:31;8.40;99.90
7196;DHT22;3639;51.308;5.624;2024-01-30T05:59:57;8.50;99.90
7196;DHT22;3639;51.308;5.624;2024-01-30T06:02:23;8.50;99.90
7196;DHT22;3639;51.308;5.624;2024-01-30T06:04:48;8.50;99.90
7196;DHT22;3639;51.308;5.624;2024-01-30T06:07:14;8.50;99.90
7196;DHT22;3639;51.308;5.624;2024-01-30T06:09:40;8.60;99.90
7196;DHT22;3639;51.308;5.624;2024-01-30T06:12:06;8.60;99.90
7196;DHT22;3639;51.308;5.624;2024-01-30T06:14:32;8.60;99.90
7196;DHT22;3639;51.308;5.624;2024-01-30T06:16:59;8.70;99.90
7196;DHT22;3639;51.308;5.624;2024-01-30T06:19:24;8.70;99.90
7196;DHT22;3639;51.308;5.624;2024-01-30T06:21:50;8.70;99.90
7196;DHT22;3639;51.308;5.624;2024-01-30T06:24:16;8.70;99.90
7196;DHT22;3639;51.308;5.624;2024-01-30T06:26:41;8.80;99.90
7196;DHT22;3639;51.308;5.624;2024-01-30T06:29:07;8.80;99.90
7196;DHT22;3639;51.308;5.624;2024-01-30T06:31:33;8.70;99.90
7196;DHT22;3639;51.308;5.624;2024-01-30T06:33:58;8.70;99.90
7196;DHT22;3639;51.308;5.624;2024-01-30T06:36:24;8.70;99.90
7196;DHT22;3639;51.308;5.624;2024-01-30T06:38:50;8.80;99.90
7196;DHT22;3639;51.308;5.624;2024-01-30T06:41:15;8.80;99.90
7196;DHT22;3639;51.308;5.624;2024-01-30T06:43:41;8.80;99.90
7196;DHT22;3639;51.308;5.624;2024-01-30T06:46:06;8.90;99.90
7196;DHT22;3639;51.308;5.624;2024-01-30T06:48:32;9.00;99.90
7196;DHT22;3639;51.308;5.624;2024-01-30T06:50:58;9.00;99.90
7196;DHT22;3639;51.308;5.624;2024-01-30T06:53:23;9.10;99.90
7196;DHT22;3639;51.308;5.624;2024-01-30T06:55:49;9.10;99.90
7196;DHT22;3639;51.308;5.624;2024-01-30T06:58:15;9.10;99.90
7196;DHT22;3639;51.308;5.624;2024-01-30T07:00:41;9.20;99.90
7196;DHT22;3639;51.308;5.624;2024-01-30T07:03:07;9.10;99.90
7196;DHT22;3639;51.308;5.624;2024-01-30T07:05:32;9.20;99.90
7196;DHT22;3639;51.308;5.624;2024-01-30T07:07:58;9.10;99.90
7196;DHT22;3639;51.308;5.624;2024-01-30T07:10:24;9.20;99.90
7196;DHT22;3639;51.308;5.624;2024-01-30T07:12:49;9.20;99.90
7196;DHT22;3639;51.308;5.624;2024-01-30T07:15:15;9.30;99.90
7196;DHT22;3639;51.308;5.624;2024-01-30T07:17:45;9.30;99.90
7196;DHT22;3639;51.308;5.624;2024-01-30T07:20:11;9.40;99.90
7196;DHT22;3639;51.308;5.624;2024-01-30T07:22:36;9.40;99.90
7196;DHT22;3639;51.308;5.624;2024-01-30T07:25:02;9.30;99.90
7196;DHT22;3639;51.308;5.624;2024-01-30T07:27:28;9.30;99.90
7196;DHT22;3639;51.308;5.624;2024-01-30T07:29:53;9.20;99.90
7196;DHT22;3639;51.308;5.624;2024-01-30T07:32:19;9.20;99.90
7196;DHT22;3639;51.308;5.624;2024-01-30T07:34:44;9.20;99.90
7196;DHT22;3639;51.308;5.624;2024-01-30T07:37:10;9.20;99.90
7196;DHT22;3639;51.308;5.624;2024-01-30T07:39:38;9.20;99.90
7196;DHT22;3639;51.308;5.624;2024-01-30T07:42:04;9.20;99.90
7196;DHT22;3639;51.308;5.624;2024-01-30T07:44:29;9.10;99.90
7196;DHT22;3639;51.308;5.624;2024-01-30T07:46:55;9.10;99.90
7196;DHT22;3639;51.308;5.624;2024-01-30T07:49:21;9.10;99.90
7196;DHT22;3639;51.308;5.624;2024-01-30T07:51:46;9.20;99.90
7196;DHT22;3639;51.308;5.624;2024-01-30T07:54:14;9.20;99.90
7196;DHT22;3639;51.308;5.624;2024-01-30T07:56:40;9.30;99.90
7196;DHT22;3639;51.308;5.624;2024-01-30T07:59:10;9.20;99.90
7196;DHT22;3639;51.308;5.624;2024-01-30T08:01:35;9.20;99.90
7196;DHT22;3639;51.308;5.624;2024-01-30T08:04:01;9.20;99.90
7196;DHT22;3639;51.308;5.624;2024-01-30T08:06:26;9.20;99.90
7196;DHT22;3639;51.308;5.624;2024-01-30T08:08:52;9.20;99.90
7196;DHT22;3639;51.308;5.624;2024-01-30T08:11:20;9.30;99.90
7196;DHT22;3639;51.308;5.624;2024-01-30T08:13:46;9.40;99.90
7196;DHT22;3639;51.308;5.624;2024-01-30T08:16:11;9.40;99.90
7196;DHT22;3639;51.308;5.624;2024-01-30T08:18:37;9.40;99.90
7196;DHT22;3639;51.308;5.624;2024-01-30T08:21:03;9.40;99.90
7196;DHT22;3639;51.308;5.624;2024-01-30T08:23:28;9.50;99.90
7196;DHT22;3639;51.308;5.624;2024-01-30T08:25:54;9.50;99.90
7196;DHT22;3639;51.308;5.624;2024-01-30T08:28:19;9.50;99.90
7196;DHT22;3639;51.308;5.624;2024-01-30T08:30:45;9.50;99.90
7196;DHT22;3639;51.308;5.624;2024-01-30T08:33:11;9.40;99.90
7196;DHT22;3639;51.308;5.624;2024-01-30T08:35:36;9.40;99.90
7196;DHT22;3639;51.308;5.624;2024-01-30T08:38:02;9.50;99.90
7196;DHT22;3639;51.308;5.624;2024-01-30T08:40:29;9.60;99.90
7196;DHT22;3639;51.308;5.624;2024-01-30T08:42:56;9.60;99.90
7196;DHT22;3639;51.308;5.624;2024-01-30T08:45:21;9.70;99.90
7196;DHT22;3639;51.308;5.624;2024-01-30T08:47:47;9.80;99.90
7196;DHT22;3639;51.308;5.624;2024-01-30T08:50:12;9.90;99.90
7196;DHT22;3639;51.308;5.624;2024-01-30T08:52:38;10.00;99.90
7196;DHT22;3639;51.308;5.624;2024-01-30T08:55:04;10.00;99.90
7196;DHT22;3639;51.308;5.624;2024-01-30T08:57:30;10.00;99.90
7196;DHT22;3639;51.308;5.624;2024-01-30T08:59:56;10.00;99.90
7196;DHT22;3639;51.308;5.624;2024-01-30T09:02:21;10.00;99.90
7196;DHT22;3639;51.308;5.624;2024-01-30T09:04:47;10.00;99.90
7196;DHT22;3639;51.308;5.624;2024-01-30T09:07:13;10.00;99.90
7196;DHT22;3639;51.308;5.624;2024-01-30T09:09:39;10.10;99.90
7196;DHT22;3639;51.308;5.624;2024-01-30T09:12:08;10.00;99.90
7196;DHT22;3639;51.308;5.624;2024-01-30T09:14:35;10.00;99.90
7196;DHT22;3639;51.308;5.624;2024-01-30T09:17:01;10.00;99.90
7196;DHT22;3639;51.308;5.624;2024-01-30T09:19:29;10.00;99.90
7196;DHT22;3639;51.308;5.624;2024-01-30T09:21:55;10.00;99.90
7196;DHT22;3639;51.308;5.624;2024-01-30T09:24:21;10.20;99.90
7196;DHT22;3639;51.308;5.624;2024-01-30T09:26:49;10.30;99.90
7196;DHT22;3639;51.308;5.624;2024-01-30T09:29:15;10.30;99.90
7196;DHT22;3639;51.308;5.624;2024-01-30T09:31:46;10.30;99.90
7196;DHT22;3639;51.308;5.624;2024-01-30T09:34:12;10.50;99.90
7196;DHT22;3639;51.308;5.624;2024-01-30T09:36:38;10.50;99.90
7196;DHT22;3639;51.308;5.624;2024-01-30T09:39:03;10.70;99.90
7196;DHT22;3639;51.308;5.624;2024-01-30T09:41:32;10.70;99.90
7196;DHT22;3639;51.308;5.624;2024-01-30T09:43:59;10.70;99.90
7196;DHT22;3639;51.308;5.624;2024-01-30T09:46:27;10.70;99.90
7196;DHT22;3639;51.308;5.624;2024-01-30T09:48:53;10.70;99.90
7196;DHT22;3639;51.308;5.624;2024-01-30T09:51:21;10.80;99.90
7196;DHT22;3639;51.308;5.624;2024-01-30T09:53:48;10.80;99.90
7196;DHT22;3639;51.308;5.624;2024-01-30T09:56:14;10.80;99.90
7196;DHT22;3639;51.308;5.624;2024-01-30T09:58:40;10.80;99.90
7196;DHT22;3639;51.308;5.624;2024-01-30T10:01:06;10.80;99.90
7196;DHT22;3639;51.308;5.624;2024-01-30T10:03:31;10.90;99.90
7196;DHT22;3639;51.308;5.624;2024-01-30T10:05:57;10.90;99.90
7196;DHT22;3639;51.308;5.624;2024-01-30T10:08:23;10.90;99.90
7196;DHT22;3639;51.308;5.624;2024-01-30T10:10:49;11.00;99.90
7196;DHT22;3639;51.308;5.624;2024-01-30T10:13:17;11.00;99.90
7196;DHT22;3639;51.308;5.624;2024-01-30T10:15:44;11.00;99.90
7196;DHT22;3639;51.308;5.624;2024-01-30T10:18:10;11.00;99.90
7196;DHT22;3639;51.308;5.624;2024-01-30T10:20:36;11.00;99.90
7196;DHT22;3639;51.308;5.624;2024-01-30T10:23:02;11.00;99.90
7196;DHT22;3639;51.308;5.624;2024-01-30T10:25:30;11.10;99.90
7196;DHT22;3639;51.308;5.624;2024-01-30T10:27:56;11.10;99.90
7196;DHT22;3639;51.308;5.624;2024-01-30T10:30:23;11.20;99.90
7196;DHT22;3639;51.308;5.624;2024-01-30T10:32:49;11.30;99.90
7196;DHT22;3639;51.308;5.624;2024-01-30T10:35:15;11.40;99.90
7196;DHT22;3639;51.308;5.624;2024-01-30T10:37:43;11.50;99.90
7196;DHT22;3639;51.308;5.624;2024-01-30T10:40:12;11.50;99.90
7196;DHT22;3639;51.308;5.624;2024-01-30T10:42:45;11.50;99.90
7196;DHT22;3639;51.308;5.624;2024-01-30T10:45:12;11.50;99.90
7196;DHT22;3639;51.308;5.624;2024-01-30T10:47:40;11.60;99.90
7196;DHT22;3639;51.308;5.624;2024-01-30T10:50:08;11.70;99.90
7196;DHT22;3639;51.308;5.624;2024-01-30T10:52:34;11.60;99.90
7196;DHT22;3639;51.308;5.624;2024-01-30T10:55:01;11.70;99.90
7196;DHT22;3639;51.308;5.624;2024-01-30T10:57:29;11.70;99.90
7196;DHT22;3639;51.308;5.624;2024-01-30T10:59:59;11.80;99.90
7196;DHT22;3639;51.308;5.624;2024-01-30T11:02:26;11.90;99.90
7196;DHT22;3639;51.308;5.624;2024-01-30T11:04:56;11.90;99.90
7196;DHT22;3639;51.308;5.624;2024-01-30T11:07:27;11.80;99.90
7196;DHT22;3639;51.308;5.624;2024-01-30T11:09:59;12.00;99.90
7196;DHT22;3639;51.308;5.624;2024-01-30T11:12:30;11.90;99.90
7196;DHT22;3639;51.308;5.624;2024-01-30T11:15:03;11.90;99.90
7196;DHT22;3639;51.308;5.624;2024-01-30T11:17:40;11.80;99.90
7196;DHT22;3639;51.308;5.624;2024-01-30T11:20:10;11.80;99.90
7196;DHT22;3639;51.308;5.624;2024-01-30T11:22:36;11.80;99.90
7196;DHT22;3639;51.308;5.624;2024-01-30T11:25:01;11.80;99.90
7196;DHT22;3639;51.308;5.624;2024-01-30T11:27:30;11.80;99.90
7196;DHT22;3639;51.308;5.624;2024-01-30T11:30:01;11.80;99.90
7196;DHT22;3639;51.308;5.624;2024-01-30T11:32:28;11.90;99.90
7196;DHT22;3639;51.308;5.624;2024-01-30T11:34:54;11.90;99.90
7196;DHT22;3639;51.308;5.624;2024-01-30T11:37:20;11.90;99.90
7196;DHT22;3639;51.308;5.624;2024-01-30T11:39:48;11.90;99.90
7196;DHT22;3639;51.308;5.624;2024-01-30T11:42:14;12.00;99.90
7196;DHT22;3639;51.308;5.624;2024-01-30T11:44:40;11.90;99.90
7196;DHT22;3639;51.308;5.624;2024-01-30T11:47:06;12.00;99.90
7196;DHT22;3639;51.308;5.624;2024-01-30T11:49:31;12.00;99.90
7196;DHT22;3639;51.308;5.624;2024-01-30T11:51:57;11.90;99.90
7196;DHT22;3639;51.308;5.624;2024-01-30T11:54:23;11.90;99.90
7196;DHT22;3639;51.308;5.624;2024-01-30T11:56:48;11.80;99.90
7196;DHT22;3639;51.308;5.624;2024-01-30T11:59:14;11.80;99.90
7196;DHT22;3639;51.308;5.624;2024-01-30T12:01:39;11.80;99.90
7196;DHT22;3639;51.308;5.624;2024-01-30T12:04:05;11.80;99.90
7196;DHT22;3639;51.308;5.624;2024-01-30T12:06:34;11.80;99.90
7196;DHT22;3639;51.308;5.624;2024-01-30T12:09:02;11.80;99.90
7196;DHT22;3639;51.308;5.624;2024-01-30T12:11:33;11.80;99.90
7196;DHT22;3639;51.308;5.624;2024-01-30T12:14:08;11.80;99.90
7196;DHT22;3639;51.308;5.624;2024-01-30T12:16:34;11.80;99.90
7196;DHT22;3639;51.308;5.624;2024-01-30T12:19:00;11.90;99.90
7196;DHT22;3639;51.308;5.624;2024-01-30T12:21:29;11.90;99.90
7196;DHT22;3639;51.308;5.624;2024-01-30T12:23:56;11.90;99.90
7196;DHT22;3639;51.308;5.624;2024-01-30T12:26:23;11.90;99.90
7196;DHT22;3639;51.308;5.624;2024-01-30T12:28:51;11.90;99.90
7196;DHT22;3639;51.308;5.624;2024-01-30T12:31:25;11.90;99.90
7196;DHT22;3639;51.308;5.624;2024-01-30T12:33:52;11.80;99.90
7196;DHT22;3639;51.308;5.624;2024-01-30T12:36:18;11.80;99.90
7196;DHT22;3639;51.308;5.624;2024-01-30T12:38:43;11.70;99.90
7196;DHT22;3639;51.308;5.624;2024-01-30T12:41:09;11.70;99.90
7196;DHT22;3639;51.308;5.624;2024-01-30T12:43:36;11.70;99.90
7196;DHT22;3639;51.308;5.624;2024-01-30T12:46:02;11.70;99.90
7196;DHT22;3639;51.308;5.624;2024-01-30T12:48:28;11.70;99.90
7196;DHT22;3639;51.308;5.624;2024-01-30T12:50:55;11.80;99.90
7196;DHT22;3639;51.308;5.624;2024-01-30T12:53:21;11.80;99.90
7196;DHT22;3639;51.308;5.624;2024-01-30T12:55:47;11.90;99.90
7196;DHT22;3639;51.308;5.624;2024-01-30T12:58:12;11.90;99.90
7196;DHT22;3639;51.308;5.624;2024-01-30T13:00:38;11.90;99.90
7196;DHT22;3639;51.308;5.624;2024-01-30T13:03:04;11.80;99.90
7196;DHT22;3639;51.308;5.624;2024-01-30T13:05:29;11.90;99.90
7196;DHT22;3639;51.308;5.624;2024-01-30T13:07:55;12.00;99.90
7196;DHT22;3639;51.308;5.624;2024-01-30T13:10:22;12.10;99.90
7196;DHT22;3639;51.308;5.624;2024-01-30T13:12:48;12.10;99.90
7196;DHT22;3639;51.308;5.624;2024-01-30T13:15:14;12.20;99.90
7196;DHT22;3639;51.308;5.624;2024-01-30T13:17:40;12.20;99.90
7196;DHT22;3639;51.308;5.624;2024-01-30T13:20:08;12.20;99.90
7196;DHT22;3639;51.308;5.624;2024-01-30T13:22:34;12.00;99.90
7196;DHT22;3639;51.308;5.624;2024-01-30T13:24:59;12.00;99.90
7196;DHT22;3639;51.308;5.624;2024-01-30T13:27:25;11.90;99.90
7196;DHT22;3639;51.308;5.624;2024-01-30T13:29:51;11.90;99.90
7196;DHT22;3639;51.308;5.624;2024-01-30T13:32:16;11.90;99.90
7196;DHT22;3639;51.308;5.624;2024-01-30T13:34:42;11.90;99.90
7196;DHT22;3639;51.308;5.624;2024-01-30T13:37:08;12.00;99.90
7196;DHT22;3639;51.308;5.624;2024-01-30T13:39:34;12.10;99.90
7196;DHT22;3639;51.308;5.624;2024-01-30T13:41:59;12.10;99.90
7196;DHT22;3639;51.308;5.624;2024-01-30T13:44:25;12.00;99.90
7196;DHT22;3639;51.308;5.624;2024-01-30T13:46:51;11.90;99.90
7196;DHT22;3639;51.308;5.624;2024-01-30T13:49:16;11.90;99.90
7196;DHT22;3639;51.308;5.624;2024-01-30T13:51:42;11.80;99.90
7196;DHT22;3639;51.308;5.624;2024-01-30T13:54:07;11.70;99.90
7196;DHT22;3639;51.308;5.624;2024-01-30T13:56:33;11.60;99.90
7196;DHT22;3639;51.308;5.624;2024-01-30T13:58:59;11.50;99.90
7196;DHT22;3639;51.308;5.624;2024-01-30T14:01:26;11.40;99.90
7196;DHT22;3639;51.308;5.624;2024-01-30T14:03:52;11.30;99.90
7196;DHT22;3639;51.308;5.624;2024-01-30T14:06:18;11.30;99.90
7196;DHT22;3639;51.308;5.624;2024-01-30T14:08:44;11.30;99.90
7196;DHT22;3639;51.308;5.624;2024-01-30T14:11:09;11.30;99.90
7196;DHT22;3639;51.308;5.624;2024-01-30T14:13:35;11.30;99.90
7196;DHT22;3639;51.308;5.624;2024-01-30T14:16:00;11.40;99.90
7196;DHT22;3639;51.308;5.624;2024-01-30T14:18:26;11.50;99.90
7196;DHT22;3639;51.308;5.624;2024-01-30T14:20:52;11.50;99.90
7196;DHT22;3639;51.308;5.624;2024-01-30T14:23:17;11.40;99.90
7196;DHT22;3639;51.308;5.624;2024-01-30T14:25:43;11.40;99.90
7196;DHT22;3639;51.308;5.624;2024-01-30T14:28:10;11.40;99.90
7196;DHT22;3639;51.308;5.624;2024-01-30T14:30:35;11.40;99.90
7196;DHT22;3639;51.308;5.624;2024-01-30T14:33:04;11.40;99.90
7196;DHT22;3639;51.308;5.624;2024-01-30T14:35:30;11.40;99.90
7196;DHT22;3639;51.308;5.624;2024-01-30T14:37:55;11.40;99.90
7196;DHT22;3639;51.308;5.624;2024-01-30T14:40:22;11.30;99.90
7196;DHT22;3639;51.308;5.624;2024-01-30T14:42:47;11.30;99.90
7196;DHT22;3639;51.308;5.624;2024-01-30T14:45:13;11.30;99.90
7196;DHT22;3639;51.308;5.624;2024-01-30T14:47:39;11.30;99.90
7196;DHT22;3639;51.308;5.624;2024-01-30T14:50:05;11.30;99.90
7196;DHT22;3639;51.308;5.624;2024-01-30T14:52:31;11.30;99.90
7196;DHT22;3639;51.308;5.624;2024-01-30T14:54:57;11.30;99.90
7196;DHT22;3639;51.308;5.624;2024-01-30T14:57:24;11.20;99.90
7196;DHT22;3639;51.308;5.624;2024-01-30T14:59:49;11.20;99.90
7196;DHT22;3639;51.308;5.624;2024-01-30T15:02:15;11.20;99.90
7196;DHT22;3639;51.308;5.624;2024-01-30T15:04:40;11.10;99.90
7196;DHT22;3639;51.308;5.624;2024-01-30T15:07:06;11.00;99.90
7196;DHT22;3639;51.308;5.624;2024-01-30T15:09:32;11.00;99.90
7196;DHT22;3639;51.308;5.624;2024-01-30T15:11:57;11.00;99.90
7196;DHT22;3639;51.308;5.624;2024-01-30T15:14:23;10.90;99.90
7196;DHT22;3639;51.308;5.624;2024-01-30T15:16:49;10.90;99.90
7196;DHT22;3639;51.308;5.624;2024-01-30T15:19:15;10.80;99.90
7196;DHT22;3639;51.308;5.624;2024-01-30T15:21:40;10.70;99.90
7196;DHT22;3639;51.308;5.624;2024-01-30T15:24:06;10.80;99.90
7196;DHT22;3639;51.308;5.624;2024-01-30T15:26:32;10.70;99.90
7196;DHT22;3639;51.308;5.624;2024-01-30T15:28:57;10.70;99.90
7196;DHT22;3639;51.308;5.624;2024-01-30T15:31:23;10.60;99.90
7196;DHT22;3639;51.308;5.624;2024-01-30T15:33:49;10.50;99.90
7196;DHT22;3639;51.308;5.624;2024-01-30T15:36:14;10.50;99.90
7196;DHT22;3639;51.308;5.624;2024-01-30T15:38:41;10.40;99.90
7196;DHT22;3639;51.308;5.624;2024-01-30T15:41:07;10.40;99.90
7196;DHT22;3639;51.308;5.624;2024-01-30T15:43:32;10.30;99.90
7196;DHT22;3639;51.308;5.624;2024-01-30T15:46:01;10.20;99.90
7196;DHT22;3639;51.308;5.624;2024-01-30T15:48:27;10.10;99.90
7196;DHT22;3639;51.308;5.624;2024-01-30T15:50:53;10.00;99.90
7196;DHT22;3639;51.308;5.624;2024-01-30T15:53:21;9.90;99.90
7196;DHT22;3639;51.308;5.624;2024-01-30T15:55:47;9.90;99.90
7196;DHT22;3639;51.308;5.624;2024-01-30T15:58:13;9.90;99.90
7196;DHT22;3639;51.308;5.624;2024-01-30T16:00:40;9.90;99.90
7196;DHT22;3639;51.308;5.624;2024-01-30T16:03:07;9.80;99.90